Terminal Aerodrome Forecast
Issued by NWS Key West, FL

Current Version | Previous Version | Text Only | Print | Product List | Glossary On
Versions: 1 2 3 4 5 6 7 8 9 10 11 12 13 14 15 16 17 18 19 20
000
FTUS42 KKEY 160900 AAC
TAFEYW
TAF AMD
KEYW 160922Z 1609/1706 33008KT P6SM SCT020
      TEMPO 1609/1611 BKN015
     FM161500 03010KT P6SM SCT020=

USA.gov is the U.S. government's official web portal to all federal, state and local government web resources and services.